createdAt,value
2018-01-07T00:00:36.883Z,5.07
2018-01-07T00:05:38.243Z,5.30
2018-01-07T00:10:39.554Z,5.50
2018-01-07T00:15:40.878Z,5.90
2018-01-07T00:20:42.219Z,5.40
2018-01-07T00:25:43.540Z,5.30
2018-01-07T00:30:45.612Z,5.30
2018-01-07T00:35:46.939Z,4.83
2018-01-07T00:40:49.026Z,5.83
2018-01-07T00:45:50.380Z,5.90
2018-01-07T00:50:51.735Z,5.33
2018-01-07T00:56:00.681Z,5.17
2018-01-07T01:01:02.094Z,5.10
2018-01-07T01:06:04.183Z,4.97
2018-01-07T01:11:05.490Z,4.63
2018-01-07T01:16:07.552Z,5.10
2018-01-07T01:21:08.862Z,4.70
2018-01-07T01:26:10.172Z,4.37
2018-01-07T01:31:12.235Z,5.37
2018-01-07T01:36:13.596Z,5.07
2018-01-07T01:41:14.933Z,4.90
2018-01-07T01:46:16.264Z,5.00
2018-01-07T01:51:17.599Z,4.20
2018-01-07T01:56:18.941Z,3.40
2018-01-07T02:01:20.286Z,4.20
2018-01-07T02:06:21.635Z,3.60
2018-01-07T02:11:23.778Z,3.00
2018-01-07T02:16:25.131Z,2.87
2018-01-07T02:21:26.462Z,1.87
2018-01-07T02:26:27.779Z,1.97
2018-01-07T02:31:38.996Z,2.00
2018-01-07T02:36:40.304Z,1.43
2018-01-07T02:41:42.360Z,1.20
2018-01-07T02:46:43.652Z,0.97
2018-01-07T02:51:44.985Z,0.80
2018-01-07T02:56:47.044Z,1.27
2018-01-07T03:01:48.416Z,0.73
2018-01-07T03:06:49.747Z,0.93
2018-01-07T03:11:51.074Z,0.90
2018-01-07T03:16:52.439Z,1.13
2018-01-07T03:21:53.779Z,0.90
2018-01-07T03:26:55.140Z,1.03
2018-01-07T03:31:56.460Z,0.83
2018-01-07T03:36:57.774Z,0.70
2018-01-07T03:41:59.082Z,1.03
2018-01-07T03:47:01.143Z,1.20
2018-01-07T03:52:02.471Z,0.80
2018-01-07T03:57:03.865Z,0.60
2018-01-07T04:02:05.251Z,0.70
2018-01-07T04:07:06.738Z,0.97
2018-01-07T04:12:08.189Z,0.90
2018-01-07T04:17:09.711Z,0.70
2018-01-07T04:22:11.268Z,0.60
2018-01-07T04:27:12.765Z,0.93
2018-01-07T04:32:14.161Z,0.70
2018-01-07T04:37:15.609Z,0.60
2018-01-07T04:42:17.080Z,0.80
2018-01-07T04:47:18.615Z,0.80
2018-01-07T04:52:19.940Z,0.70
2018-01-07T04:57:21.446Z,0.80
2018-01-07T05:02:23.014Z,0.80
2018-01-07T05:07:24.522Z,0.80
2018-01-07T05:12:25.982Z,0.87
2018-01-07T05:17:27.375Z,0.80
2018-01-07T05:22:28.903Z,1.97
2018-01-07T05:27:30.433Z,0.80
2018-01-07T05:32:31.943Z,0.77
2018-01-07T05:37:33.500Z,0.60
2018-01-07T05:42:34.989Z,0.70
2018-01-07T05:47:36.508Z,0.80
2018-01-07T05:52:38.028Z,0.73
2018-01-07T05:57:39.845Z,0.73
2018-01-07T06:02:41.431Z,1.00
2018-01-07T06:07:42.964Z,1.23
2018-01-07T06:12:44.504Z,0.90
2018-01-07T06:17:46.872Z,1.20
2018-01-07T06:22:49.180Z,1.07
2018-01-07T06:27:50.815Z,1.10
2018-01-07T06:32:52.438Z,1.00
2018-01-07T06:37:54.110Z,1.83
2018-01-07T06:42:56.419Z,1.10
2018-01-07T06:47:57.959Z,1.50
2018-01-07T06:52:59.482Z,1.10
2018-01-07T06:58:01.028Z,1.23
2018-01-07T07:03:02.379Z,1.30
2018-01-07T07:08:03.707Z,1.30
2018-01-07T07:13:05.058Z,1.07
2018-01-07T07:18:06.432Z,1.87
2018-01-07T07:23:07.751Z,1.07
2018-01-07T07:28:09.888Z,1.30
2018-01-07T07:33:11.227Z,2.00
2018-01-07T07:38:12.576Z,1.80
2018-01-07T07:43:13.916Z,1.90
2018-01-07T07:48:15.266Z,1.30
2018-01-07T07:53:16.579Z,1.30
2018-01-07T07:58:18.263Z,1.90
2018-01-07T08:03:19.618Z,2.00
2018-01-07T08:08:20.941Z,2.00
2018-01-07T08:13:22.330Z,1.97
2018-01-07T08:18:23.672Z,2.40
2018-01-07T08:23:25.751Z,1.80
2018-01-07T08:28:27.055Z,1.93
2018-01-07T08:33:29.131Z,2.10
2018-01-07T08:38:30.477Z,1.93
2018-01-07T08:43:31.848Z,2.50
2018-01-07T08:48:33.204Z,1.60
2018-01-07T08:53:34.738Z,2.50
2018-01-07T08:58:37.011Z,1.97
2018-01-07T09:03:38.348Z,2.90
2018-01-07T09:08:40.438Z,15.53
2018-01-07T09:13:42.514Z,2.53
2018-01-07T09:18:43.865Z,2.80
2018-01-07T09:23:45.193Z,2.53
2018-01-07T09:28:46.504Z,1.80
2018-01-07T09:33:48.458Z,2.17
2018-01-07T09:38:49.853Z,2.27
2018-01-07T09:43:51.218Z,1.77
2018-01-07T09:48:53.252Z,2.07
2018-01-07T09:53:54.718Z,2.30
2018-01-07T09:58:56.772Z,2.37
2018-01-07T10:03:58.067Z,2.00
2018-01-07T10:08:59.383Z,1.97
2018-01-07T10:14:00.708Z,1.67
2018-01-07T10:19:02.036Z,2.30
2018-01-07T10:24:03.415Z,1.70
2018-01-07T10:29:04.756Z,2.47
2018-01-07T10:34:06.842Z,2.53
2018-01-07T10:39:08.999Z,2.10
2018-01-07T10:44:10.339Z,1.83
2018-01-07T10:49:11.660Z,2.00
2018-01-07T10:54:13.000Z,1.87
2018-01-07T10:59:14.365Z,1.97
2018-01-07T11:04:15.688Z,1.90
2018-01-07T11:09:17.056Z,2.00
2018-01-07T11:14:18.396Z,1.80
2018-01-07T11:19:20.470Z,1.80
2018-01-07T11:24:21.884Z,2.00
2018-01-07T11:29:23.961Z,1.37
2018-01-07T11:34:25.293Z,1.70
2018-01-07T11:39:27.427Z,5.73
2018-01-07T11:44:28.855Z,2.50
2018-01-07T11:49:30.197Z,2.60
2018-01-07T11:54:31.608Z,1.70
2018-01-07T11:59:33.770Z,1.83
2018-01-07T12:04:35.994Z,1.60
2018-01-07T12:09:37.468Z,1.33
2018-01-07T12:14:38.860Z,1.43
2018-01-07T12:19:41.050Z,2.07
2018-01-07T12:24:42.379Z,1.20
2018-01-07T12:29:45.474Z,1.43
2018-01-07T12:34:50.823Z,1.63
2018-01-07T12:39:53.969Z,1.40
2018-01-07T12:44:55.344Z,1.50
2018-01-07T12:49:56.760Z,2.60
2018-01-07T12:54:58.116Z,1.43
2018-01-07T12:59:59.458Z,1.80
2018-01-07T13:05:00.880Z,1.03
2018-01-07T13:10:02.312Z,1.40
2018-01-07T13:15:03.684Z,1.30
2018-01-07T13:20:05.057Z,1.30
2018-01-07T13:25:06.395Z,1.60
2018-01-07T13:30:07.858Z,1.10
2018-01-07T13:35:09.232Z,1.00
2018-01-07T13:40:10.791Z,1.50
2018-01-07T13:45:12.275Z,1.40
2018-01-07T13:50:13.648Z,1.17
2018-01-07T13:55:15.418Z,0.90
2018-01-07T14:00:17.601Z,0.93
2018-01-07T14:05:19.660Z,1.03
2018-01-07T14:10:21.024Z,1.27
2018-01-07T14:15:22.354Z,0.93
2018-01-07T14:20:23.655Z,1.17
2018-01-07T14:25:24.979Z,1.07
2018-01-07T14:30:26.334Z,1.30
2018-01-07T14:35:27.633Z,0.80
2018-01-07T14:40:28.976Z,2.10
2018-01-07T14:45:30.311Z,1.47
2018-01-07T14:50:31.633Z,1.10
2018-01-07T14:55:32.961Z,1.10
2018-01-07T15:00:34.374Z,0.80
2018-01-07T15:05:35.908Z,1.30
2018-01-07T15:10:37.573Z,1.50
2018-01-07T15:15:38.901Z,1.27
2018-01-07T15:20:40.456Z,2.00
2018-01-07T15:25:41.789Z,1.80
2018-01-07T15:30:43.145Z,3.07
2018-01-07T15:35:45.182Z,2.53
2018-01-07T15:40:46.506Z,1.57
2018-01-07T15:45:47.890Z,3.60
2018-01-07T15:50:49.473Z,2.83
2018-01-07T15:55:50.834Z,1.00
2018-01-07T16:00:52.176Z,1.00
2018-01-07T16:05:53.577Z,1.60
2018-01-07T16:10:54.890Z,2.63
2018-01-07T16:15:56.990Z,9.60
2018-01-07T16:20:58.355Z,3.07
2018-01-07T16:25:59.678Z,3.20
2018-01-07T16:31:01.020Z,2.00
2018-01-07T16:36:02.356Z,1.90
2018-01-07T16:41:04.445Z,2.73
2018-01-07T16:46:05.752Z,1.43
2018-01-07T16:51:07.828Z,1.47
2018-01-07T16:56:09.132Z,1.40
2018-01-07T17:01:10.500Z,1.60
2018-01-07T17:06:11.846Z,2.13
2018-01-07T17:11:13.197Z,1.80
2018-01-07T17:16:14.572Z,1.83
2018-01-07T17:21:15.887Z,1.80
2018-01-07T17:26:17.197Z,2.43
2018-01-07T17:31:19.293Z,3.73
2018-01-07T17:36:21.372Z,1.10
2018-01-07T17:41:22.688Z,1.57
2018-01-07T17:46:24.836Z,1.40
2018-01-07T17:51:26.201Z,1.00
2018-01-07T17:56:27.589Z,1.43
2018-01-07T18:01:29.692Z,0.93
2018-01-07T18:06:31.799Z,1.20
2018-01-07T18:11:33.883Z,1.60
2018-01-07T18:16:35.211Z,1.20
2018-01-07T18:21:36.619Z,1.40
2018-01-07T18:26:37.933Z,1.33
2018-01-07T18:31:39.316Z,1.13
2018-01-07T18:36:40.692Z,1.47
2018-01-07T18:41:42.385Z,1.23
2018-01-07T18:46:43.751Z,1.30
2018-01-07T18:51:45.079Z,1.10
2018-01-07T18:56:46.404Z,1.13
2018-01-07T19:01:52.638Z,1.93
2018-01-07T19:06:53.988Z,1.37
2018-01-07T19:11:55.316Z,1.40
2018-01-07T19:16:57.021Z,1.00
2018-01-07T19:21:58.405Z,1.73
2018-01-07T19:27:00.457Z,1.67
2018-01-07T19:32:01.786Z,1.70
2018-01-07T19:37:03.132Z,1.13
2018-01-07T19:42:05.061Z,1.30
2018-01-07T19:47:06.530Z,1.13
2018-01-07T19:52:07.930Z,1.43
2018-01-07T19:57:11.031Z,1.20
2018-01-07T20:02:12.389Z,1.30
2018-01-07T20:07:14.515Z,1.37
2018-01-07T20:12:15.845Z,1.70
2018-01-07T20:17:17.535Z,1.60
2018-01-07T20:22:18.877Z,1.67
2018-01-07T20:27:20.211Z,1.40
2018-01-07T20:32:21.593Z,1.37
2018-01-07T20:37:22.930Z,1.03
2018-01-07T20:42:24.404Z,1.37
2018-01-07T20:47:25.798Z,1.20
2018-01-07T20:52:27.166Z,1.40
2018-01-07T20:57:28.523Z,1.60
2018-01-07T21:02:29.885Z,1.20
2018-01-07T21:07:38.854Z,1.50
2018-01-07T21:12:40.968Z,1.60
2018-01-07T21:17:43.057Z,1.43
2018-01-07T21:22:44.472Z,1.50
2018-01-07T21:27:45.979Z,1.70
2018-01-07T21:32:47.311Z,1.93
2018-01-07T21:37:48.654Z,1.40
2018-01-07T21:42:50.058Z,1.60
2018-01-07T21:47:51.359Z,1.63
2018-01-07T21:52:52.783Z,1.60
2018-01-07T21:57:54.261Z,1.57
2018-01-07T22:02:55.672Z,1.50
2018-01-07T22:07:56.986Z,1.67
2018-01-07T22:12:59.285Z,2.30
2018-01-07T22:18:00.609Z,2.20
2018-01-07T22:23:01.991Z,2.10
2018-01-07T22:28:03.359Z,2.10
2018-01-07T22:33:05.426Z,2.40
2018-01-07T22:38:06.768Z,2.50
2018-01-07T22:43:08.267Z,2.70
2018-01-07T22:48:09.603Z,2.73
2018-01-07T22:53:11.007Z,2.10
2018-01-07T22:58:12.464Z,2.33
2018-01-07T23:03:13.843Z,2.77
2018-01-07T23:08:15.196Z,2.67
2018-01-07T23:13:16.506Z,2.17
2018-01-07T23:18:17.837Z,2.40
2018-01-07T23:23:19.191Z,3.30
2018-01-07T23:28:20.529Z,3.50
2018-01-07T23:33:21.864Z,3.43
2018-01-07T23:38:24.007Z,3.80
2018-01-07T23:43:25.320Z,3.77
2018-01-07T23:48:26.658Z,3.70
2018-01-07T23:53:27.958Z,4.30
2018-01-07T23:58:29.324Z,3.53
